createdAt,value
2019-05-21T00:01:52.256Z,38.77
2019-05-21T00:04:28.259Z,37.83
2019-05-21T00:06:51.956Z,38.93
2019-05-21T00:09:21.236Z,38.17
2019-05-21T00:11:50.235Z,38.90
2019-05-21T00:14:19.178Z,40.27
2019-05-21T00:16:48.117Z,42.13
2019-05-21T00:19:16.745Z,40.10
2019-05-21T00:21:45.692Z,39.77
2019-05-21T00:24:14.992Z,40.23
2019-05-21T00:26:43.990Z,37.90
2019-05-21T00:29:49.030Z,38.90
2019-05-21T00:32:53.964Z,42.20
2019-05-21T00:35:58.857Z,39.57
2019-05-21T00:39:04.361Z,38.67
2019-05-21T00:41:59.651Z,39.67
2019-05-21T00:44:29.062Z,40.67
2019-05-21T00:46:57.756Z,40.43
2019-05-21T00:49:26.769Z,39.50
2019-05-21T00:52:07.041Z,35.63
2019-05-21T00:54:26.364Z,38.13
2019-05-21T00:56:55.193Z,37.90
2019-05-21T00:59:24.150Z,37.00
2019-05-21T01:01:52.773Z,39.43
2019-05-21T01:04:21.446Z,38.23
2019-05-21T01:06:50.114Z,39.27
2019-05-21T01:09:18.729Z,40.03
2019-05-21T01:11:47.460Z,40.47
2019-05-21T01:14:16.359Z,42.10
2019-05-21T01:16:45.005Z,41.20
2019-05-21T01:19:14.077Z,40.93
2019-05-21T01:21:43.049Z,42.77
2019-05-21T01:24:12.039Z,40.57
2019-05-21T01:26:40.679Z,40.50
2019-05-21T01:29:09.378Z,40.67
2019-05-21T01:31:38.300Z,40.73
2019-05-21T01:34:06.971Z,40.03
2019-05-21T01:36:36.296Z,40.57
2019-05-21T01:39:05.761Z,38.97
2019-05-21T01:41:34.675Z,40.67
2019-05-21T01:44:03.651Z,39.77
2019-05-21T01:46:32.285Z,41.17
2019-05-21T01:49:01.259Z,42.33
2019-05-21T01:51:29.868Z,39.03
2019-05-21T01:53:58.839Z,40.33
2019-05-21T01:56:28.241Z,40.87
2019-05-21T01:58:56.889Z,42.00
2019-05-21T02:01:25.533Z,40.27
2019-05-21T02:03:54.507Z,41.20
2019-05-21T02:06:24.022Z,41.43
2019-05-21T02:08:52.717Z,43.60
2019-05-21T02:11:21.690Z,43.53
2019-05-21T02:13:50.690Z,43.97
2019-05-21T02:16:19.304Z,43.27
2019-05-21T02:18:47.948Z,43.33
2019-05-21T02:21:16.953Z,44.33
2019-05-21T02:23:45.939Z,44.23
2019-05-21T02:26:14.843Z,45.57
2019-05-21T02:28:43.934Z,44.70
2019-05-21T02:31:12.578Z,45.77
2019-05-21T02:33:41.229Z,43.90
2019-05-21T02:36:10.107Z,42.90
2019-05-21T02:38:39.132Z,43.03
2019-05-21T02:41:07.854Z,42.90
2019-05-21T02:43:36.763Z,43.53
2019-05-21T02:46:05.769Z,44.10
2019-05-21T02:48:34.401Z,42.63
2019-05-21T02:51:03.135Z,43.90
2019-05-21T02:53:34.459Z,43.33
2019-05-21T02:56:02.401Z,44.60
2019-05-21T02:58:31.358Z,46.40
2019-05-21T03:01:06.872Z,46.13
2019-05-21T03:03:35.996Z,47.73
2019-05-21T03:06:13.647Z,46.67
2019-05-21T03:08:35.085Z,45.83
2019-05-21T03:11:04.097Z,46.90
2019-05-21T03:13:33.102Z,44.20
2019-05-21T03:16:02.089Z,45.53
2019-05-21T03:18:31.093Z,47.50
2019-05-21T03:21:00.379Z,48.70
2019-05-21T03:23:29.459Z,48.77
2019-05-21T03:25:58.803Z,49.10
2019-05-21T03:28:27.429Z,49.17
2019-05-21T03:30:56.984Z,49.93
2019-05-21T03:33:26.171Z,51.73
2019-05-21T03:35:55.169Z,49.73
2019-05-21T03:38:23.828Z,49.93
2019-05-21T03:40:52.488Z,48.13
2019-05-21T03:43:21.565Z,48.10
2019-05-21T03:45:50.229Z,47.83
2019-05-21T03:48:18.950Z,48.40
2019-05-21T03:50:47.902Z,49.77
2019-05-21T03:53:17.198Z,47.83
2019-05-21T03:55:45.849Z,47.73
2019-05-21T03:58:14.798Z,45.97
2019-05-21T04:00:43.464Z,45.77
2019-05-21T04:03:12.450Z,46.40
2019-05-21T04:05:41.343Z,46.53
2019-05-21T04:08:10.319Z,44.53
2019-05-21T04:10:38.984Z,44.47
2019-05-21T04:13:08.652Z,42.77
2019-05-21T04:15:54.208Z,41.57
2019-05-21T04:18:27.204Z,44.07
2019-05-21T04:20:55.862Z,43.73
2019-05-21T04:23:24.886Z,41.60
2019-05-21T04:25:53.520Z,42.43
2019-05-21T04:28:22.453Z,41.77
2019-05-21T04:30:51.876Z,43.30
2019-05-21T04:33:20.502Z,41.50
2019-05-21T04:35:49.444Z,40.57
2019-05-21T04:38:18.106Z,41.00
2019-05-21T04:40:47.127Z,41.67
2019-05-21T04:43:15.776Z,43.10
2019-05-21T04:45:45.241Z,43.33
2019-05-21T04:48:13.947Z,42.07
2019-05-21T04:50:43.206Z,45.33
2019-05-21T04:53:12.183Z,44.77
2019-05-21T04:55:40.868Z,46.67
2019-05-21T04:58:09.787Z,48.13
2019-05-21T05:00:38.406Z,44.83
2019-05-21T05:03:07.334Z,47.27
2019-05-21T05:05:36.004Z,43.93
2019-05-21T05:08:04.809Z,40.93
2019-05-21T05:10:33.827Z,40.43
2019-05-21T05:13:03.022Z,40.40
2019-05-21T05:15:31.999Z,40.97
2019-05-21T05:18:01.034Z,42.30
2019-05-21T05:20:29.681Z,46.00
2019-05-21T05:22:58.572Z,43.90
2019-05-21T05:25:27.215Z,43.10
2019-05-21T05:27:55.891Z,44.37
2019-05-21T05:30:24.875Z,41.53
2019-05-21T05:32:53.842Z,41.97
2019-05-21T05:35:22.833Z,40.00
2019-05-21T05:37:51.562Z,40.83
2019-05-21T05:40:20.822Z,41.77
2019-05-21T05:42:50.229Z,38.20
2019-05-21T05:45:19.045Z,38.43
2019-05-21T05:47:48.011Z,38.17
2019-05-21T05:50:18.615Z,39.57
2019-05-21T05:52:47.327Z,40.63
2019-05-21T05:55:16.132Z,40.47
2019-05-21T05:57:45.024Z,42.03
2019-05-21T06:00:15.040Z,40.37
2019-05-21T06:02:43.693Z,39.37
2019-05-21T06:05:12.809Z,39.80
2019-05-21T06:07:41.803Z,38.57
2019-05-21T06:10:10.589Z,34.40
2019-05-21T06:12:39.592Z,38.67
2019-05-21T06:15:08.340Z,35.50
2019-05-21T06:17:36.980Z,37.80
2019-05-21T06:20:06.464Z,38.63
2019-05-21T06:22:35.456Z,37.53
2019-05-21T06:25:05.101Z,36.03
2019-05-21T06:27:34.063Z,31.13
2019-05-21T06:30:02.826Z,31.17
2019-05-21T06:32:31.742Z,28.90
2019-05-21T06:35:00.414Z,28.07
2019-05-21T06:37:29.058Z,29.27
2019-05-21T06:39:57.698Z,31.23
2019-05-21T06:42:26.346Z,31.87
2019-05-21T06:44:54.999Z,28.87
2019-05-21T06:47:24.577Z,28.80
2019-05-21T06:49:53.469Z,29.63
2019-05-21T06:52:22.558Z,30.57
2019-05-21T06:54:51.269Z,31.60
2019-05-21T06:57:19.915Z,30.63
2019-05-21T06:59:49.130Z,28.77
2019-05-21T07:02:18.445Z,28.67
2019-05-21T07:04:47.819Z,28.87
2019-05-21T07:07:16.538Z,29.73
2019-05-21T07:09:45.517Z,30.47
2019-05-21T07:12:14.266Z,28.77
2019-05-21T07:14:42.972Z,29.27
2019-05-21T07:17:11.895Z,31.13
2019-05-21T07:19:40.773Z,30.50
2019-05-21T07:22:12.963Z,30.53
2019-05-21T07:24:39.841Z,30.33
2019-05-21T07:27:08.814Z,31.10
2019-05-21T07:29:37.419Z,31.37
2019-05-21T07:32:06.359Z,30.47
2019-05-21T07:34:35.008Z,29.73
2019-05-21T07:37:03.658Z,31.27
2019-05-21T07:39:32.633Z,30.17
2019-05-21T07:42:01.262Z,29.07
2019-05-21T07:44:29.891Z,29.17
2019-05-21T07:46:58.885Z,29.97
2019-05-21T07:49:28.150Z,29.53
2019-05-21T07:51:57.389Z,27.80
2019-05-21T07:54:28.198Z,28.00
2019-05-21T07:56:57.089Z,27.27
2019-05-21T07:59:25.832Z,27.27
2019-05-21T08:01:54.808Z,26.73
2019-05-21T08:04:23.997Z,26.57
2019-05-21T08:06:52.661Z,25.73
2019-05-21T08:09:21.334Z,27.97
2019-05-21T08:11:49.956Z,26.07
2019-05-21T08:14:18.841Z,26.90
2019-05-21T08:16:47.501Z,27.07
2019-05-21T08:19:16.523Z,26.27
2019-05-21T08:21:45.137Z,25.63
2019-05-21T08:24:13.759Z,27.33
2019-05-21T08:26:42.644Z,26.10
2019-05-21T08:29:11.346Z,26.77
2019-05-21T08:31:40.285Z,25.03
2019-05-21T08:34:08.942Z,25.10
2019-05-21T08:36:37.861Z,25.43
2019-05-21T08:39:07.647Z,25.67
2019-05-21T08:41:36.653Z,25.00
2019-05-21T08:44:05.386Z,24.80
2019-05-21T08:46:34.940Z,24.77
2019-05-21T08:49:03.839Z,23.93
2019-05-21T08:51:32.557Z,25.37
2019-05-21T08:54:01.519Z,24.57
2019-05-21T08:56:30.152Z,24.13
2019-05-21T08:58:59.104Z,23.57
2019-05-21T09:01:28.086Z,24.50
2019-05-21T09:03:57.084Z,23.27
2019-05-21T09:06:26.063Z,25.60
2019-05-21T09:08:55.293Z,24.73
2019-05-21T09:11:24.263Z,24.73
2019-05-21T09:13:53.261Z,28.33
2019-05-21T09:16:21.913Z,28.10
2019-05-21T09:18:50.859Z,27.50
2019-05-21T09:21:20.143Z,29.10
2019-05-21T09:23:48.811Z,27.57
2019-05-21T09:26:18.099Z,29.37
2019-05-21T09:28:46.947Z,28.67
2019-05-21T09:31:15.914Z,27.77
2019-05-21T09:33:44.803Z,28.47
2019-05-21T09:36:13.997Z,27.13
2019-05-21T09:38:43.338Z,27.43
2019-05-21T09:41:12.195Z,25.47
2019-05-21T09:43:41.186Z,25.27
2019-05-21T09:46:09.827Z,25.87
2019-05-21T09:48:38.764Z,26.43
2019-05-21T09:51:07.768Z,26.17
2019-05-21T09:53:37.363Z,26.80
2019-05-21T09:56:24.179Z,26.77
2019-05-21T09:58:54.717Z,28.40
2019-05-21T10:01:29.847Z,28.47
2019-05-21T10:03:59.114Z,28.77
2019-05-21T10:06:28.147Z,29.83
2019-05-21T10:08:56.775Z,27.70
2019-05-21T10:11:25.431Z,28.23
2019-05-21T10:13:54.430Z,27.80
2019-05-21T10:16:23.728Z,28.50
2019-05-21T10:18:52.437Z,27.50
2019-05-21T10:21:21.572Z,26.43
2019-05-21T10:23:50.484Z,26.80
2019-05-21T10:26:19.780Z,26.07
2019-05-21T10:28:49.104Z,26.87
2019-05-21T10:31:18.073Z,26.17
2019-05-21T10:33:47.597Z,26.03
2019-05-21T10:36:16.990Z,24.93
2019-05-21T10:38:45.977Z,26.53
2019-05-21T10:41:15.071Z,23.50
2019-05-21T10:43:43.984Z,23.70
2019-05-21T10:46:12.695Z,22.73
2019-05-21T10:48:41.647Z,24.27
2019-05-21T10:51:10.807Z,23.97
2019-05-21T10:53:40.041Z,22.73
2019-05-21T10:56:08.747Z,23.47
2019-05-21T10:58:37.619Z,22.63
2019-05-21T11:01:16.332Z,21.97
2019-05-21T11:04:04.693Z,21.27
2019-05-21T11:06:33.805Z,20.87
2019-05-21T11:09:02.533Z,20.10
2019-05-21T11:11:31.166Z,20.73
2019-05-21T11:14:00.240Z,20.73
2019-05-21T11:16:29.453Z,21.73
2019-05-21T11:18:58.450Z,22.03
2019-05-21T11:21:27.119Z,21.13
2019-05-21T11:23:56.276Z,22.00
2019-05-21T11:26:25.089Z,22.20
2019-05-21T11:28:54.016Z,22.53
2019-05-21T11:31:22.903Z,22.20
2019-05-21T11:33:51.906Z,23.57
2019-05-21T11:36:20.900Z,24.07
2019-05-21T11:38:49.796Z,23.37
2019-05-21T11:41:19.088Z,23.23
2019-05-21T11:43:48.085Z,23.37
2019-05-21T11:46:16.738Z,22.87
2019-05-21T11:48:45.672Z,23.00
2019-05-21T11:51:14.392Z,23.50
2019-05-21T11:53:43.342Z,25.83
2019-05-21T11:56:12.358Z,27.47
2019-05-21T11:58:40.999Z,27.30
2019-05-21T12:01:10.221Z,28.30
2019-05-21T12:03:39.520Z,26.90
2019-05-21T12:06:08.820Z,27.30
2019-05-21T12:08:38.019Z,27.27
2019-05-21T12:11:06.902Z,25.97
2019-05-21T12:13:35.636Z,26.57
2019-05-21T12:16:04.692Z,26.53
2019-05-21T12:18:33.588Z,25.27
2019-05-21T12:21:02.296Z,27.40
2019-05-21T12:23:31.879Z,28.13
2019-05-21T12:26:01.227Z,29.63
2019-05-21T12:28:30.479Z,28.10
2019-05-21T12:30:59.681Z,29.33
2019-05-21T12:33:28.571Z,29.13
2019-05-21T12:35:57.872Z,30.43
2019-05-21T12:38:26.512Z,28.53
2019-05-21T12:40:55.147Z,28.90
2019-05-21T12:43:24.142Z,30.03
2019-05-21T12:45:52.846Z,29.03
2019-05-21T12:48:21.877Z,27.63
2019-05-21T12:50:50.807Z,27.50
2019-05-21T12:53:19.715Z,28.73
2019-05-21T12:55:48.355Z,27.33
2019-05-21T12:58:17.002Z,28.13
2019-05-21T13:00:45.719Z,27.40
2019-05-21T13:03:14.652Z,28.00
2019-05-21T13:05:43.313Z,27.17
2019-05-21T13:08:12.786Z,27.37
2019-05-21T13:10:41.738Z,26.67
2019-05-21T13:13:10.372Z,27.97
2019-05-21T13:15:39.330Z,26.50
2019-05-21T13:18:07.937Z,27.97
2019-05-21T13:20:36.602Z,28.00
2019-05-21T13:23:05.781Z,28.43
2019-05-21T13:25:35.254Z,27.47
2019-05-21T13:28:03.923Z,25.60
2019-05-21T13:30:32.600Z,25.30
2019-05-21T13:33:01.556Z,22.37
2019-05-21T13:35:30.550Z,21.63
2019-05-21T13:37:59.542Z,23.50
2019-05-21T13:40:29.158Z,23.60
2019-05-21T13:42:58.356Z,23.23
2019-05-21T13:45:27.088Z,22.40
2019-05-21T13:47:56.082Z,23.23
2019-05-21T13:50:24.634Z,21.07
2019-05-21T13:52:53.285Z,22.10
2019-05-21T13:55:22.012Z,23.47
2019-05-21T13:57:50.913Z,22.57
2019-05-21T14:00:26.528Z,21.37
2019-05-21T14:02:55.439Z,22.60
2019-05-21T14:05:24.420Z,21.67
2019-05-21T14:07:53.510Z,21.30
2019-05-21T14:10:22.235Z,22.27
2019-05-21T14:12:51.192Z,23.40
2019-05-21T14:15:19.927Z,23.07
2019-05-21T14:17:48.871Z,23.50
2019-05-21T14:20:18.069Z,23.57
2019-05-21T14:22:46.739Z,24.53
2019-05-21T14:25:15.749Z,23.07
2019-05-21T14:27:45.382Z,23.80
2019-05-21T14:30:14.757Z,24.33
2019-05-21T14:32:43.753Z,24.67
2019-05-21T14:35:13.061Z,23.47
2019-05-21T14:37:42.252Z,22.00
2019-05-21T14:40:11.538Z,20.87
2019-05-21T14:42:58.517Z,20.37
2019-05-21T14:45:14.457Z,19.53
2019-05-21T14:47:43.118Z,18.53
2019-05-21T14:50:12.139Z,17.23
2019-05-21T14:52:41.268Z,17.30
2019-05-21T14:55:10.064Z,15.10
2019-05-21T14:57:39.116Z,15.60
2019-05-21T15:00:19.142Z,15.23
2019-05-21T15:02:48.453Z,12.67
2019-05-21T15:05:17.174Z,12.03
2019-05-21T15:07:49.697Z,12.30
2019-05-21T15:10:16.929Z,11.40
2019-05-21T15:12:45.545Z,11.03
2019-05-21T15:15:14.574Z,9.80
2019-05-21T15:17:43.209Z,9.60
2019-05-21T15:20:21.128Z,11.13
2019-05-21T15:22:50.060Z,10.17
2019-05-21T15:25:19.039Z,11.30
2019-05-21T15:27:48.032Z,11.97
2019-05-21T15:30:19.901Z,12.10
2019-05-21T15:32:48.508Z,12.23
2019-05-21T15:35:17.198Z,11.80
2019-05-21T15:37:46.086Z,11.30
2019-05-21T15:40:15.163Z,11.53
2019-05-21T15:42:44.153Z,12.37
2019-05-21T15:45:12.965Z,11.13
2019-05-21T15:47:41.632Z,10.93
2019-05-21T15:50:10.319Z,11.27
2019-05-21T15:52:39.318Z,10.93
2019-05-21T15:55:08.266Z,9.57
2019-05-21T15:57:37.287Z,10.30
2019-05-21T16:00:07.118Z,9.90
2019-05-21T16:02:36.436Z,9.13
2019-05-21T16:05:05.704Z,9.17
2019-05-21T16:07:34.340Z,8.37
2019-05-21T16:10:02.986Z,8.40
2019-05-21T16:12:31.633Z,9.13
2019-05-21T16:15:00.856Z,8.90
2019-05-21T16:17:29.501Z,9.40
2019-05-21T16:19:58.195Z,8.90
2019-05-21T16:22:27.430Z,9.50
2019-05-21T16:24:56.425Z,9.33
2019-05-21T16:27:25.418Z,9.30
2019-05-21T16:29:54.717Z,8.90
2019-05-21T16:32:23.656Z,8.60
2019-05-21T16:34:52.522Z,8.70
2019-05-21T16:37:24.162Z,7.97
2019-05-21T16:39:53.457Z,8.17
2019-05-21T16:42:22.388Z,8.50
2019-05-21T16:44:51.061Z,8.30
2019-05-21T16:47:19.900Z,9.07
2019-05-21T16:49:48.809Z,9.77
2019-05-21T16:52:17.711Z,10.20
2019-05-21T16:54:46.607Z,9.83
2019-05-21T16:57:15.792Z,10.97
2019-05-21T16:59:44.520Z,11.63
2019-05-21T17:02:13.482Z,11.47
2019-05-21T17:04:42.680Z,11.00
2019-05-21T17:07:11.724Z,11.53
2019-05-21T17:09:40.670Z,11.20
2019-05-21T17:12:09.465Z,10.33
2019-05-21T17:14:38.450Z,10.17
2019-05-21T17:17:07.454Z,11.33
2019-05-21T17:19:36.498Z,11.77
2019-05-21T17:22:05.534Z,9.77
2019-05-21T17:24:34.946Z,10.23
2019-05-21T17:27:04.406Z,9.87
2019-05-21T17:29:34.055Z,10.33
2019-05-21T17:32:06.369Z,11.77
2019-05-21T17:34:33.483Z,11.27
2019-05-21T17:37:04.227Z,10.90
2019-05-21T17:39:32.923Z,12.20
2019-05-21T17:42:14.724Z,13.10
2019-05-21T17:44:33.064Z,11.87
2019-05-21T17:47:01.744Z,11.70
2019-05-21T17:49:30.386Z,11.93
2019-05-21T17:51:59.099Z,12.60
2019-05-21T17:54:28.127Z,12.33
2019-05-21T17:56:56.776Z,12.53
2019-05-21T17:59:25.508Z,12.57
2019-05-21T18:01:54.756Z,12.17
2019-05-21T18:04:23.855Z,12.70
2019-05-21T18:06:52.608Z,12.67
2019-05-21T18:09:22.259Z,12.53
2019-05-21T18:11:51.647Z,12.17
2019-05-21T18:14:20.671Z,13.10
2019-05-21T18:16:49.954Z,12.53
2019-05-21T18:19:20.175Z,12.33
2019-05-21T18:21:50.237Z,13.07
2019-05-21T18:24:20.242Z,13.47
2019-05-21T18:26:49.723Z,13.87
2019-05-21T18:29:19.015Z,13.23
2019-05-21T18:31:48.111Z,13.97
2019-05-21T18:34:17.006Z,13.40
2019-05-21T18:36:46.030Z,13.97
2019-05-21T18:39:15.400Z,14.23
2019-05-21T18:41:44.114Z,14.53
2019-05-21T18:44:12.739Z,14.50
2019-05-21T18:46:41.696Z,14.20
2019-05-21T18:49:10.420Z,13.73
2019-05-21T18:51:39.446Z,14.93
2019-05-21T18:54:08.130Z,14.50
2019-05-21T18:56:37.027Z,14.77
2019-05-21T18:59:06.019Z,14.77
2019-05-21T19:01:38.171Z,14.60
2019-05-21T19:04:05.440Z,14.90
2019-05-21T19:06:34.743Z,15.20
2019-05-21T19:09:04.640Z,15.17
2019-05-21T19:11:33.299Z,14.97
2019-05-21T19:14:02.082Z,13.77
2019-05-21T19:16:30.730Z,15.50
2019-05-21T19:19:00.131Z,16.27
2019-05-21T19:21:29.035Z,15.30
2019-05-21T19:23:58.315Z,15.53
2019-05-21T19:26:26.948Z,16.40
2019-05-21T19:28:55.575Z,15.17
2019-05-21T19:31:24.639Z,16.80
2019-05-21T19:33:53.574Z,17.10
2019-05-21T19:36:22.729Z,15.57
2019-05-21T19:38:51.396Z,17.23
2019-05-21T19:41:20.361Z,17.30
2019-05-21T19:43:49.942Z,17.30
2019-05-21T19:46:18.670Z,16.13
2019-05-21T19:48:47.318Z,14.40
2019-05-21T19:51:16.556Z,14.33
2019-05-21T19:53:45.525Z,14.63
2019-05-21T19:56:14.440Z,16.13
2019-05-21T19:58:43.067Z,16.17
2019-05-21T20:01:12.344Z,17.10
2019-05-21T20:03:41.573Z,19.80
2019-05-21T20:06:10.188Z,21.87
2019-05-21T20:08:39.700Z,23.07
2019-05-21T20:11:09.198Z,24.30
2019-05-21T20:13:37.839Z,23.27
2019-05-21T20:16:06.578Z,25.10
2019-05-21T20:18:35.561Z,25.50
2019-05-21T20:21:06.826Z,26.00
2019-05-21T20:23:36.006Z,28.00
2019-05-21T20:26:04.906Z,29.63
2019-05-21T20:28:34.574Z,29.07
2019-05-21T20:31:04.025Z,30.00
2019-05-21T20:33:34.654Z,29.23
2019-05-21T20:36:03.887Z,29.97
2019-05-21T20:38:33.252Z,27.93
2019-05-21T20:41:02.039Z,28.53
2019-05-21T20:43:31.251Z,30.63
2019-05-21T20:46:00.295Z,29.13
2019-05-21T20:48:32.048Z,29.83
2019-05-21T20:51:02.411Z,30.17
2019-05-21T20:53:31.720Z,29.47
2019-05-21T20:56:00.813Z,30.80
2019-05-21T20:58:29.874Z,30.03
2019-05-21T21:01:01.178Z,30.73
2019-05-21T21:03:30.459Z,32.77
2019-05-21T21:05:59.244Z,32.63
2019-05-21T21:08:28.340Z,32.33
2019-05-21T21:10:57.127Z,33.53
2019-05-21T21:13:26.942Z,34.07
2019-05-21T21:15:55.576Z,33.00
2019-05-21T21:18:25.083Z,33.63
2019-05-21T21:20:54.027Z,32.10
2019-05-21T21:23:24.732Z,33.50
2019-05-21T21:25:53.866Z,32.37
2019-05-21T21:28:23.261Z,32.40
2019-05-21T21:30:51.888Z,34.63
2019-05-21T21:33:21.453Z,35.83
2019-05-21T21:35:50.473Z,36.13
2019-05-21T21:38:23.227Z,36.40
2019-05-21T21:40:51.874Z,36.67
2019-05-21T21:43:20.532Z,36.50
2019-05-21T21:45:49.338Z,35.80
2019-05-21T21:48:18.696Z,36.93
2019-05-21T21:50:47.688Z,39.27
2019-05-21T21:53:17.104Z,40.03
2019-05-21T21:55:46.077Z,40.87
2019-05-21T21:58:15.417Z,39.53
2019-05-21T22:01:19.991Z,41.17
2019-05-21T22:03:49.279Z,43.47
2019-05-21T22:06:19.536Z,43.40
2019-05-21T22:08:48.522Z,44.40
2019-05-21T22:11:18.309Z,44.97
2019-05-21T22:13:47.428Z,46.47
2019-05-21T22:16:17.065Z,47.57
2019-05-21T22:18:45.810Z,48.70
2019-05-21T22:21:14.613Z,45.33
2019-05-21T22:23:43.329Z,46.67
2019-05-21T22:26:11.989Z,43.13
2019-05-21T22:28:40.977Z,45.57
2019-05-21T22:31:10.301Z,44.53
2019-05-21T22:33:39.490Z,42.87
2019-05-21T22:36:08.690Z,41.97
2019-05-21T22:38:37.682Z,40.33
2019-05-21T22:41:06.788Z,44.33
2019-05-21T22:43:35.822Z,44.57
2019-05-21T22:46:05.286Z,43.30
2019-05-21T22:48:34.891Z,43.57
2019-05-21T22:51:03.606Z,42.43
2019-05-21T22:53:32.251Z,40.63
2019-05-21T22:56:00.990Z,42.27
2019-05-21T22:58:30.256Z,42.07
2019-05-21T23:01:00.474Z,41.43
2019-05-21T23:03:30.089Z,38.47
2019-05-21T23:05:58.707Z,36.47
2019-05-21T23:08:28.383Z,32.57
2019-05-21T23:10:57.101Z,29.13
2019-05-21T23:13:26.061Z,31.17
2019-05-21T23:15:55.256Z,32.40
2019-05-21T23:18:24.542Z,31.87
2019-05-21T23:20:53.596Z,36.17
2019-05-21T23:23:24.295Z,35.40
2019-05-21T23:25:54.640Z,35.73
2019-05-21T23:41:59.591Z,38.33
2019-05-21T23:44:55.873Z,36.77
2019-05-21T23:47:24.904Z,39.63
2019-05-21T23:49:54.677Z,39.00
2019-05-21T23:52:24.292Z,38.23
2019-05-21T23:54:53.223Z,36.17
2019-05-21T23:57:30.311Z,37.70
2019-05-21T23:59:59.047Z,38.30
